Time;durP1;ratioP1;P1;durP2;ratioP2;P2;SDS_P1;SDS_P2;PMS_P1;PMS_P2;Temp;Humidity;BMP_temperature;BMP_pressure;BME280_temperature;BME280_humidity;BME280_pressure;Samples;Min_cycle;Max_cycle;Signal;HPM_P1;HPM_P2
2021/06/23 00:01:36;;;;;;;13.93;5.85;;;;;;;;;;4937026;29;20046;-79
2021/06/23 00:04:02;;;;;;;16.70;5.85;;;;;;;;;;4936616;29;20032;-79
2021/06/23 00:06:29;;;;;;;10.35;5.70;;;;;;;;;;4936501;29;20035;-80
2021/06/23 00:08:55;;;;;;;12.15;6.35;;;;;;;;;;4936938;29;20098;-79
2021/06/23 00:11:21;;;;;;;9.98;5.13;;;;;;;;;;4935699;29;20027;-80
2021/06/23 00:13:49;;;;;;;11.77;5.45;;;;;;;;;;4936008;29;20044;-79
2021/06/23 00:16:16;;;;;;;11.15;5.63;;;;;;;;;;4936265;29;20031;-80
2021/06/23 00:18:42;;;;;;;13.68;5.75;;;;;;;;;;4937376;29;20035;-80
2021/06/23 00:21:08;;;;;;;10.02;5.90;;;;;;;;;;4937492;29;20031;-78
2021/06/23 00:23:35;;;;;;;10.80;5.90;;;;;;;;;;4935848;29;20027;-79
2021/06/23 00:26:01;;;;;;;9.52;6.05;;;;;;;;;;4936080;29;20035;-80
2021/06/23 00:28:27;;;;;;;10.15;5.80;;;;;;;;;;4937229;29;20114;-80
2021/06/23 00:30:54;;;;;;;10.45;6.43;;;;;;;;;;4937552;29;20027;-82
2021/06/23 00:33:21;;;;;;;10.73;5.95;;;;;;;;;;4937745;29;20095;-80
2021/06/23 00:35:47;;;;;;;11.25;6.15;;;;;;;;;;4935626;29;20142;-80
2021/06/23 00:38:14;;;;;;;12.27;5.82;;;;;;;;;;4935472;29;20413;-81
2021/06/23 00:40:41;;;;;;;11.23;5.93;;;;;;;;;;4937888;29;20028;-81
2021/06/23 00:43:07;;;;;;;11.18;6.32;;;;;;;;;;4936886;29;20038;-80
2021/06/23 00:45:34;;;;;;;17.58;6.05;;;;;;;;;;4935558;29;20111;-80
2021/06/23 00:48:01;;;;;;;12.75;6.72;;;;;;;;;;4936220;29;20465;-80
2021/06/23 00:50:27;;;;;;;11.60;6.60;;;;;;;;;;4935447;29;20024;-80
2021/06/23 00:52:55;;;;;;;15.38;7.25;;;;;;;;;;4935283;29;20036;-81
2021/06/23 00:55:22;;;;;;;14.98;6.72;;;;;;;;;;4935028;29;20397;-80
2021/06/23 00:57:50;;;;;;;15.10;6.20;;;;;;;;;;4936945;29;20034;-80
2021/06/23 01:00:18;;;;;;;15.18;6.90;;;;;;;;;;4937043;29;20469;-80
2021/06/23 01:02:45;;;;;;;14.32;6.43;;;;;;;;;;4937357;29;20020;-79
2021/06/23 01:05:11;;;;;;;16.80;7.20;;;;;;;;;;4935455;29;20036;-80
2021/06/23 01:07:37;;;;;;;13.20;6.40;;;;;;;;;;4935432;29;20053;-80
2021/06/23 01:10:04;;;;;;;11.60;6.55;;;;;;;;;;4935565;29;20499;-81
2021/06/23 01:12:48;;;;;;;18.70;7.68;;;;;;;;;;4936819;29;20022;-80
2021/06/23 01:15:15;;;;;;;23.73;7.65;;;;;;;;;;4935261;29;20043;-80
2021/06/23 01:17:41;;;;;;;15.80;7.47;;;;;;;;;;4936273;29;20055;-80
2021/06/23 01:20:08;;;;;;;17.75;7.55;;;;;;;;;;4934956;29;20433;-79
2021/06/23 01:22:34;;;;;;;19.85;6.72;;;;;;;;;;4936181;29;20032;-79
2021/06/23 01:25:01;;;;;;;10.45;6.30;;;;;;;;;;4935333;29;20038;-81
2021/06/23 01:27:27;;;;;;;12.57;5.70;;;;;;;;;;4936534;29;20429;-80
2021/06/23 01:29:53;;;;;;;10.52;4.93;;;;;;;;;;4935495;29;20039;-80
2021/06/23 01:32:20;;;;;;;9.32;4.78;;;;;;;;;;4936422;29;20079;-80
2021/06/23 01:34:46;;;;;;;11.95;5.32;;;;;;;;;;4936411;29;20039;-80
2021/06/23 01:37:13;;;;;;;7.80;5.03;;;;;;;;;;4936432;29;20425;-81
2021/06/23 01:39:39;;;;;;;8.82;5.38;;;;;;;;;;4934622;29;20412;-79
2021/06/23 01:42:05;;;;;;;11.68;5.40;;;;;;;;;;4936186;29;20474;-80
2021/06/23 01:44:31;;;;;;;13.38;5.20;;;;;;;;;;4934896;29;20067;-80
2021/06/23 01:46:57;;;;;;;7.68;5.32;;;;;;;;;;4934615;29;20127;-80
2021/06/23 01:49:25;;;;;;;11.52;5.93;;;;;;;;;;4935079;29;20421;-80
2021/06/23 01:51:52;;;;;;;12.75;6.28;;;;;;;;;;4934916;29;20127;-80
2021/06/23 01:54:18;;;;;;;11.82;5.25;;;;;;;;;;4935902;29;20062;-80
2021/06/23 01:56:44;;;;;;;12.50;5.57;;;;;;;;;;4935878;29;20477;-80
2021/06/23 01:59:11;;;;;;;9.57;5.47;;;;;;;;;;4939930;29;20354;-80
2021/06/23 02:01:46;;;;;;;7.40;5.45;;;;;;;;;;4938393;29;20028;-80
2021/06/23 02:04:19;;;;;;;9.30;5.43;;;;;;;;;;4940090;29;20027;-80
2021/06/23 02:06:46;;;;;;;;;;;;;;;;;;4939002;29;20027;-80
2021/06/23 02:09:31;;;;;;;13.10;7.22;;;;;;;;;;4939837;29;19961;-80
2021/06/23 02:12:19;;;;;;;14.32;7.55;;;;;;;;;;4938166;29;20032;-80
2021/06/23 02:14:45;;;;;;;15.52;7.90;;;;;;;;;;4939823;29;20036;-81
2021/06/23 02:17:12;;;;;;;11.65;7.68;;;;;;;;;;4939572;29;20034;-79
2021/06/23 02:19:39;;;;;;;14.02;8.30;;;;;;;;;;4938162;29;20480;-81
2021/06/23 02:22:09;;;;;;;13.65;8.13;;;;;;;;;;4939169;29;20024;-78
2021/06/23 02:24:35;;;;;;;17.85;8.95;;;;;;;;;;4938154;29;20032;-80
2021/06/23 02:27:02;;;;;;;15.55;9.63;;;;;;;;;;4938555;29;20027;-79
2021/06/23 02:29:28;;;;;;;15.68;8.90;;;;;;;;;;4940104;29;20039;-80
2021/06/23 02:31:55;;;;;;;18.70;9.90;;;;;;;;;;4939861;29;20175;-81
2021/06/23 02:34:22;;;;;;;23.38;10.07;;;;;;;;;;4937697;29;20401;-80
2021/06/23 02:36:48;;;;;;;16.60;9.27;;;;;;;;;;4939167;29;20371;-81
2021/06/23 02:39:14;;;;;;;17.67;8.48;;;;;;;;;;4937203;29;20067;-81
2021/06/23 02:41:40;;;;;;;15.07;9.93;;;;;;;;;;4937746;29;20024;-81
2021/06/23 02:44:07;;;;;;;22.55;8.82;;;;;;;;;;4937631;29;20052;-81
2021/06/23 02:46:33;;;;;;;20.30;8.68;;;;;;;;;;4937696;29;20079;-80
2021/06/23 02:48:59;;;;;;;15.57;8.52;;;;;;;;;;4937163;29;20027;-81
2021/06/23 02:51:26;;;;;;;15.38;9.05;;;;;;;;;;4939053;29;20056;-80
2021/06/23 02:53:53;;;;;;;11.95;8.20;;;;;;;;;;4936985;29;20038;-81
2021/06/23 02:56:20;;;;;;;13.90;8.30;;;;;;;;;;4936948;29;20485;-81
2021/06/23 02:58:47;;;;;;;12.02;8.00;;;;;;;;;;4938677;29;20461;-80
2021/06/23 03:01:14;;;;;;;13.80;8.60;;;;;;;;;;4936832;29;20507;-80
2021/06/23 03:03:41;;;;;;;13.80;7.80;;;;;;;;;;4937023;29;20039;-83
2021/06/23 03:06:08;;;;;;;15.48;8.30;;;;;;;;;;4938356;29;20038;-80
2021/06/23 03:08:35;;;;;;;16.48;8.82;;;;;;;;;;4937648;29;20103;-80
2021/06/23 03:11:01;;;;;;;14.68;8.90;;;;;;;;;;4936607;29;20028;-80
2021/06/23 03:13:28;;;;;;;11.98;8.27;;;;;;;;;;4937462;29;20036;-80
2021/06/23 03:15:54;;;;;;;11.93;8.45;;;;;;;;;;4938209;29;20114;-79
2021/06/23 03:18:21;;;;;;;17.05;10.90;;;;;;;;;;4937617;29;20027;-80
2021/06/23 03:20:48;;;;;;;19.90;12.57;;;;;;;;;;4938272;29;20465;-80
2021/06/23 03:23:14;;;;;;;19.40;11.65;;;;;;;;;;4936231;29;20481;-78
2021/06/23 03:25:41;;;;;;;20.52;11.90;;;;;;;;;;4937447;29;20046;-81
2021/06/23 03:28:07;;;;;;;15.93;11.27;;;;;;;;;;4936204;29;20028;-78
2021/06/23 03:30:34;;;;;;;16.17;11.43;;;;;;;;;;4937717;29;20499;-80
2021/06/23 03:33:00;;;;;;;18.67;11.65;;;;;;;;;;4937258;29;20552;-78
2021/06/23 03:35:27;;;;;;;20.60;11.38;;;;;;;;;;4935950;29;20043;-79
2021/06/23 03:37:54;;;;;;;20.73;11.10;;;;;;;;;;4938791;29;20102;-80
2021/06/23 03:40:21;;;;;;;16.05;10.68;;;;;;;;;;4939195;29;20039;-79
2021/06/23 03:42:47;;;;;;;18.33;11.40;;;;;;;;;;4956297;29;20023;-79
2021/06/23 03:45:14;;;;;;;14.90;10.25;;;;;;;;;;4956246;29;20484;-80
2021/06/23 03:47:42;;;;;;;17.50;9.68;;;;;;;;;;4956685;29;20039;-79
2021/06/23 03:50:09;;;;;;;19.90;10.63;;;;;;;;;;4956086;29;20055;-78
2021/06/23 03:52:35;;;;;;;16.67;10.32;;;;;;;;;;4938926;29;20034;-79
2021/06/23 03:55:05;;;;;;;16.17;9.80;;;;;;;;;;4938786;29;20035;-79
2021/06/23 03:57:31;;;;;;;15.05;8.88;;;;;;;;;;4938777;29;20046;-79
2021/06/23 03:59:57;;;;;;;14.60;10.20;;;;;;;;;;4956039;29;20031;-79
2021/06/23 04:02:23;;;;;;;14.73;9.25;;;;;;;;;;4955965;29;20034;-80
2021/06/23 04:04:49;;;;;;;17.83;9.45;;;;;;;;;;4938720;29;20028;-78
2021/06/23 04:07:16;;;;;;;14.30;8.57;;;;;;;;;;4938613;29;20396;-79
2021/06/23 04:09:42;;;;;;;12.88;8.23;;;;;;;;;;4956488;29;20027;-78
2021/06/23 04:12:09;;;;;;;12.98;8.02;;;;;;;;;;4955971;29;20492;-78
2021/06/23 04:14:35;;;;;;;15.07;8.38;;;;;;;;;;4938572;29;20039;-79
2021/06/23 04:17:01;;;;;;;13.30;8.13;;;;;;;;;;4938638;29;20035;-78
2021/06/23 04:19:28;;;;;;;15.38;7.35;;;;;;;;;;4938035;29;20027;-80
2021/06/23 04:21:54;;;;;;;11.15;7.20;;;;;;;;;;4938760;29;20027;-78
2021/06/23 04:24:20;;;;;;;15.50;7.25;;;;;;;;;;4938568;29;20023;-78
2021/06/23 04:26:46;;;;;;;9.73;7.03;;;;;;;;;;4955695;29;20047;-81
2021/06/23 04:29:13;;;;;;;13.65;7.47;;;;;;;;;;4938539;29;20038;-78
2021/06/23 04:31:39;;;;;;;12.48;7.50;;;;;;;;;;4955489;29;20039;-78
2021/06/23 04:34:05;;;;;;;14.07;7.07;;;;;;;;;;4955404;29;20170;-79
2021/06/23 04:36:32;;;;;;;11.93;7.07;;;;;;;;;;4938267;29;20031;-78
2021/06/23 04:38:58;;;;;;;12.85;6.57;;;;;;;;;;4955512;29;20106;-79
2021/06/23 04:41:24;;;;;;;15.65;6.65;;;;;;;;;;4938163;29;20465;-79
2021/06/23 04:43:50;;;;;;;12.10;7.15;;;;;;;;;;4938216;29;20074;-78
2021/06/23 04:46:16;;;;;;;13.68;6.78;;;;;;;;;;4938181;29;20090;-78
2021/06/23 04:48:42;;;;;;;9.10;6.45;;;;;;;;;;4955369;29;20030;-80
2021/06/23 04:51:11;;;;;;;16.00;6.65;;;;;;;;;;4938280;29;20042;-81
2021/06/23 04:53:37;;;;;;;13.23;6.07;;;;;;;;;;4938811;29;20059;-81
2021/06/23 04:56:04;;;;;;;12.65;6.15;;;;;;;;;;4938048;29;20062;-81
2021/06/23 04:58:33;;;;;;;11.25;6.95;;;;;;;;;;4937782;29;20027;-81
2021/06/23 05:01:00;;;;;;;8.25;5.72;;;;;;;;;;4955197;29;20032;-82
2021/06/23 05:03:26;;;;;;;10.48;6.50;;;;;;;;;;4955430;29;20035;-80
2021/06/23 05:05:56;;;;;;;11.73;6.00;;;;;;;;;;4937860;29;20117;-80
2021/06/23 05:08:22;;;;;;;11.10;6.30;;;;;;;;;;4938034;29;20035;-80
2021/06/23 05:10:48;;;;;;;9.02;5.63;;;;;;;;;;4937962;29;20027;-80
2021/06/23 05:13:15;;;;;;;12.32;6.03;;;;;;;;;;4937897;29;20111;-81
2021/06/23 05:15:41;;;;;;;12.52;5.72;;;;;;;;;;4937811;29;20035;-81
2021/06/23 05:18:07;;;;;;;8.88;5.30;;;;;;;;;;4937929;29;20023;-80
2021/06/23 05:20:33;;;;;;;10.00;5.57;;;;;;;;;;4934497;29;20027;-81
2021/06/23 05:22:59;;;;;;;11.85;5.88;;;;;;;;;;4933072;29;20035;-80
2021/06/23 05:25:26;;;;;;;11.15;5.70;;;;;;;;;;4937420;29;20079;-80
2021/06/23 05:27:52;;;;;;;11.10;5.82;;;;;;;;;;4937114;29;20400;-80
2021/06/23 05:30:18;;;;;;;7.45;5.40;;;;;;;;;;4955618;28;20024;-83
2021/06/23 05:32:44;;;;;;;7.90;5.60;;;;;;;;;;4958490;29;20030;-81
2021/06/23 05:35:11;;;;;;;10.55;5.18;;;;;;;;;;4958395;29;20050;-82
2021/06/23 05:37:37;;;;;;;7.55;5.18;;;;;;;;;;4940863;29;20074;-80
2021/06/23 05:40:04;;;;;;;11.98;5.53;;;;;;;;;;4940676;29;20055;-82
2021/06/23 05:42:30;;;;;;;11.82;5.50;;;;;;;;;;4940318;29;20493;-82
2021/06/23 05:44:56;;;;;;;10.13;5.63;;;;;;;;;;4940902;29;20365;-82
2021/06/23 05:47:23;;;;;;;9.38;5.25;;;;;;;;;;4941208;29;20034;-82
2021/06/23 05:49:49;;;;;;;12.77;5.82;;;;;;;;;;4941874;29;20495;-81
2021/06/23 05:52:15;;;;;;;11.10;5.28;;;;;;;;;;4940976;29;20035;-83
2021/06/23 05:54:41;;;;;;;11.13;5.25;;;;;;;;;;4958136;29;20078;-83
2021/06/23 05:57:07;;;;;;;10.43;6.00;;;;;;;;;;4940855;29;20488;-82
2021/06/23 05:59:33;;;;;;;10.93;5.30;;;;;;;;;;4958000;29;20392;-79
2021/06/23 06:01:59;;;;;;;11.38;5.05;;;;;;;;;;4958171;29;20030;-79
2021/06/23 06:04:26;;;;;;;10.55;5.80;;;;;;;;;;4958064;29;20035;-80
2021/06/23 06:06:52;;;;;;;14.85;5.32;;;;;;;;;;4958162;29;20023;-81
2021/06/23 06:09:18;;;;;;;13.45;5.47;;;;;;;;;;4940699;29;20034;-82
2021/06/23 06:11:44;;;;;;;8.60;5.47;;;;;;;;;;4940585;29;20024;-82
2021/06/23 06:14:10;;;;;;;15.38;5.88;;;;;;;;;;4940508;29;20038;-81
2021/06/23 06:16:36;;;;;;;9.95;5.53;;;;;;;;;;4957686;29;20035;-85
2021/06/23 06:19:03;;;;;;;12.93;6.00;;;;;;;;;;4940519;29;20027;-80
2021/06/23 06:21:29;;;;;;;14.68;5.55;;;;;;;;;;4940340;29;20027;-79
2021/06/23 06:23:55;;;;;;;10.50;5.63;;;;;;;;;;4940500;29;20034;-80
2021/06/23 06:26:21;;;;;;;9.80;5.90;;;;;;;;;;4940407;29;20090;-80
2021/06/23 06:28:47;;;;;;;11.40;5.95;;;;;;;;;;4940243;29;20037;-80
2021/06/23 06:31:13;;;;;;;12.32;6.13;;;;;;;;;;4940264;29;20024;-80
2021/06/23 06:33:40;;;;;;;11.85;6.32;;;;;;;;;;4939954;29;20027;-80
2021/06/23 06:36:06;;;;;;;17.92;6.20;;;;;;;;;;4957463;29;20480;-80
2021/06/23 06:38:32;;;;;;;9.73;5.65;;;;;;;;;;4940109;29;20122;-80
2021/06/23 06:40:58;;;;;;;9.30;5.47;;;;;;;;;;4940090;29;20039;-81
2021/06/23 06:43:24;;;;;;;10.40;6.03;;;;;;;;;;4939578;29;20028;-79
2021/06/23 06:45:52;;;;;;;12.52;5.95;;;;;;;;;;4940015;29;20055;-80
2021/06/23 06:48:21;;;;;;;12.85;5.70;;;;;;;;;;4939885;29;20034;-81
2021/06/23 06:50:47;;;;;;;20.58;5.82;;;;;;;;;;4939977;29;20472;-79
2021/06/23 06:53:13;;;;;;;11.32;5.13;;;;;;;;;;4940053;29;20075;-79
2021/06/23 06:55:42;;;;;;;11.85;5.32;;;;;;;;;;4957243;29;20043;-79
2021/06/23 06:58:08;;;;;;;12.93;6.15;;;;;;;;;;4939862;29;20019;-80
2021/06/23 07:00:34;;;;;;;10.88;5.93;;;;;;;;;;4939763;29;20037;-80
2021/06/23 07:03:03;;;;;;;10.75;5.38;;;;;;;;;;4921205;29;20059;-81
2021/06/23 07:05:29;;;;;;;14.57;5.97;;;;;;;;;;4920599;29;20031;-80
2021/06/23 07:07:55;;;;;;;11.00;5.97;;;;;;;;;;4920594;29;20477;-78
2021/06/23 07:10:21;;;;;;;12.15;5.32;;;;;;;;;;4920539;29;20076;-82
2021/06/23 07:12:47;;;;;;;10.95;5.85;;;;;;;;;;4937600;29;20031;-78
2021/06/23 07:15:13;;;;;;;11.05;5.75;;;;;;;;;;4937503;29;20473;-79
2021/06/23 07:17:40;;;;;;;8.30;5.40;;;;;;;;;;4919839;29;20031;-81
2021/06/23 07:20:06;;;;;;;14.27;5.68;;;;;;;;;;4920104;29;20370;-81
2021/06/23 07:22:32;;;;;;;11.85;5.53;;;;;;;;;;4920455;29;20035;-81
2021/06/23 07:24:59;;;;;;;9.65;5.38;;;;;;;;;;4920443;29;20032;-81
2021/06/23 07:27:26;;;;;;;9.57;5.75;;;;;;;;;;4938037;29;20024;-80
2021/06/23 07:29:52;;;;;;;10.35;5.30;;;;;;;;;;4937897;29;20422;-80
2021/06/23 07:32:55;;;;;;;11.45;5.93;;;;;;;;;;4937343;29;20098;-80
2021/06/23 07:38:11;;;;;;;12.13;5.88;;;;;;;;;;4869154;29;20041;-80
2021/06/23 07:43:16;;;;;;;16.00;6.03;;;;;;;;;;4938077;29;20469;-80
2021/06/23 07:45:46;;;;;;;10.30;5.57;;;;;;;;;;4937085;29;20027;-80
2021/06/23 07:48:13;;;;;;;10.65;5.95;;;;;;;;;;4920862;29;20039;-80
2021/06/23 07:50:50;;;;;;;7.93;5.60;;;;;;;;;;4937049;29;20039;-80
2021/06/23 07:56:12;;;;;;;10.27;5.95;;;;;;;;;;4897331;29;20040;-80
2021/06/23 08:12:04;;;;;;;12.85;6.97;;;;;;;;;;4936738;29;20051;-81
2021/06/23 08:14:31;;;;;;;9.02;6.03;;;;;;;;;;4937107;29;20354;-81
2021/06/23 08:16:58;;;;;;;10.30;6.60;;;;;;;;;;4936613;29;20062;-81
2021/06/23 08:19:24;;;;;;;13.73;6.03;;;;;;;;;;4936563;29;20024;-81
2021/06/23 08:21:50;;;;;;;14.55;6.72;;;;;;;;;;4937091;29;20055;-81
2021/06/23 08:24:17;;;;;;;10.98;6.30;;;;;;;;;;4936508;29;20032;-81
2021/06/23 08:26:43;;;;;;;17.02;6.68;;;;;;;;;;4937026;29;20020;-81
2021/06/23 08:29:10;;;;;;;9.20;5.70;;;;;;;;;;4919387;29;20481;-81
2021/06/23 08:31:36;;;;;;;12.63;5.70;;;;;;;;;;4936400;29;20031;-81
2021/06/23 08:34:02;;;;;;;7.88;5.40;;;;;;;;;;4936311;29;20043;-81
2021/06/23 08:36:29;;;;;;;9.93;5.57;;;;;;;;;;4936910;29;20024;-82
2021/06/23 08:38:55;;;;;;;8.88;5.75;;;;;;;;;;4936064;29;20052;-82
2021/06/23 08:41:26;;;;;;;8.73;5.10;;;;;;;;;;4936799;29;20023;-81
2021/06/23 08:43:58;;;;;;;10.38;5.20;;;;;;;;;;4919226;29;20028;-81
2021/06/23 08:46:25;;;;;;;9.60;4.72;;;;;;;;;;4919137;29;20026;-81
2021/06/23 08:48:52;;;;;;;7.03;4.50;;;;;;;;;;4936710;29;20024;-81
2021/06/23 08:51:21;;;;;;;5.85;4.60;;;;;;;;;;4936201;29;20083;-81
2021/06/23 08:53:47;;;;;;;6.20;4.35;;;;;;;;;;4936125;29;20034;-80
2021/06/23 08:56:14;;;;;;;7.75;5.10;;;;;;;;;;4936621;29;20111;-82
2021/06/23 08:58:40;;;;;;;9.52;4.57;;;;;;;;;;4936637;29;20024;-80
2021/06/23 09:01:07;;;;;;;7.35;4.60;;;;;;;;;;4936037;29;20043;-80
2021/06/23 09:03:53;;;;;;;12.65;4.78;;;;;;;;;;4936117;29;20103;-80
2021/06/23 09:06:39;;;;;;;8.35;4.85;;;;;;;;;;4938583;29;20043;-80
2021/06/23 09:09:16;;;;;;;8.32;5.05;;;;;;;;;;4940583;29;20472;-80
2021/06/23 09:11:43;;;;;;;6.43;4.97;;;;;;;;;;4922876;29;20068;-80
2021/06/23 09:14:12;;;;;;;8.18;4.97;;;;;;;;;;4939816;29;20023;-80
2021/06/23 09:16:57;;;;;;;8.52;4.75;;;;;;;;;;4922722;29;20047;-80
2021/06/23 09:19:27;;;;;;;6.93;4.60;;;;;;;;;;4939741;29;20037;-80
2021/06/23 09:21:54;;;;;;;10.50;4.95;;;;;;;;;;4922707;29;20087;-80
2021/06/23 09:24:20;;;;;;;6.65;4.10;;;;;;;;;;4939720;29;20055;-80
2021/06/23 09:26:46;;;;;;;9.45;4.32;;;;;;;;;;4939656;29;20032;-80
2021/06/23 09:29:14;;;;;;;8.95;4.38;;;;;;;;;;4939670;29;20075;-80
2021/06/23 09:32:00;;;;;;;6.32;4.40;;;;;;;;;;4939584;29;20032;-80
2021/06/23 09:34:30;;;;;;;6.10;4.28;;;;;;;;;;4939526;29;20040;-80
2021/06/23 09:36:58;;;;;;;8.93;4.47;;;;;;;;;;4922465;29;20063;-80
2021/06/23 09:39:25;;;;;;;4.90;3.75;;;;;;;;;;4939323;29;20114;-80
2021/06/23 09:41:52;;;;;;;6.13;4.47;;;;;;;;;;4939389;29;20038;-80
2021/06/23 09:44:19;;;;;;;7.18;4.25;;;;;;;;;;4939416;29;20024;-80
2021/06/23 09:46:47;;;;;;;5.95;3.75;;;;;;;;;;4939273;29;20444;-80
2021/06/23 09:49:17;;;;;;;9.38;4.22;;;;;;;;;;4922226;29;20019;-80
2021/06/23 09:51:48;;;;;;;5.47;4.30;;;;;;;;;;4922231;29;20032;-80
2021/06/23 09:54:15;;;;;;;22.87;5.00;;;;;;;;;;4939125;29;20389;-79
2021/06/23 09:56:48;;;;;;;5.30;3.90;;;;;;;;;;4939728;29;20036;-79
2021/06/23 09:59:38;;;;;;;11.93;4.72;;;;;;;;;;4922045;29;20027;-80
2021/06/23 10:02:25;;;;;;;6.65;3.92;;;;;;;;;;4921979;29;20059;-79
2021/06/23 10:04:51;;;;;;;12.38;4.18;;;;;;;;;;4937732;29;20063;-80
2021/06/23 10:07:36;;;;;;;8.48;4.88;;;;;;;;;;4938925;29;20028;-80
2021/06/23 10:10:03;;;;;;;12.13;4.38;;;;;;;;;;4921798;29;20039;-80
2021/06/23 10:12:30;;;;;;;7.28;4.55;;;;;;;;;;4939133;29;20024;-79
2021/06/23 10:14:56;;;;;;;5.18;3.97;;;;;;;;;;4921679;29;20068;-79
2021/06/23 10:17:23;;;;;;;9.23;4.47;;;;;;;;;;4920751;29;20027;-81
2021/06/23 10:19:49;;;;;;;6.07;4.20;;;;;;;;;;4938779;29;20028;-81
2021/06/23 10:22:17;;;;;;;9.95;4.28;;;;;;;;;;4938694;29;20054;-80
2021/06/23 10:24:44;;;;;;;8.38;4.82;;;;;;;;;;4922324;29;20028;-80
2021/06/23 10:27:11;;;;;;;10.60;4.53;;;;;;;;;;4938595;29;20488;-80
2021/06/23 10:29:39;;;;;;;11.48;4.90;;;;;;;;;;4939053;29;20480;-81
2021/06/23 10:32:06;;;;;;;7.18;4.38;;;;;;;;;;4938530;29;20385;-81
2021/06/23 10:34:33;;;;;;;8.73;4.70;;;;;;;;;;4938385;29;20035;-81
2021/06/23 10:36:59;;;;;;;7.88;4.85;;;;;;;;;;4921318;29;20043;-80
2021/06/23 10:39:30;;;;;;;11.93;4.85;;;;;;;;;;4938368;29;20122;-80
2021/06/23 10:42:00;;;;;;;12.38;4.75;;;;;;;;;;4938337;29;20182;-80
2021/06/23 10:44:28;;;;;;;10.20;4.75;;;;;;;;;;4938314;29;20106;-80
2021/06/23 10:46:58;;;;;;;9.30;4.82;;;;;;;;;;4938209;29;20059;-80
2021/06/23 10:49:43;;;;;;;9.35;5.07;;;;;;;;;;4921133;29;20023;-80
2021/06/23 10:52:21;;;;;;;8.60;5.07;;;;;;;;;;4921016;29;20030;-81
2021/06/23 10:54:51;;;;;;;9.07;5.00;;;;;;;;;;4920972;29;20147;-78
2021/06/23 10:57:24;;;;;;;9.52;5.47;;;;;;;;;;4920982;29;20481;-79
2021/06/23 10:59:52;;;;;;;8.55;5.07;;;;;;;;;;4920949;29;20064;-80
2021/06/23 11:02:18;;;;;;;12.75;5.15;;;;;;;;;;4937922;29;20470;-80
2021/06/23 11:05:03;;;;;;;12.25;5.72;;;;;;;;;;4937939;29;20506;-80
2021/06/23 11:07:36;;;;;;;11.35;5.40;;;;;;;;;;4938689;29;20034;-80
2021/06/23 11:10:12;;;;;;;9.75;5.82;;;;;;;;;;4920816;29;20055;-80
2021/06/23 11:13:01;;;;;;;11.68;5.55;;;;;;;;;;4937805;29;20028;-80
2021/06/23 11:15:34;;;;;;;10.48;5.22;;;;;;;;;;4929990;29;20048;-80
2021/06/23 11:18:18;;;;;;;10.18;5.97;;;;;;;;;;4938220;29;20019;-80
2021/06/23 11:20:58;;;;;;;9.82;5.75;;;;;;;;;;4920478;29;20035;-80
2021/06/23 11:23:43;;;;;;;9.40;5.75;;;;;;;;;;4937582;29;20034;-80
2021/06/23 11:26:10;;;;;;;8.32;5.40;;;;;;;;;;4920500;29;20023;-77
2021/06/23 11:28:40;;;;;;;11.55;5.53;;;;;;;;;;4924118;29;20051;-77
2021/06/23 11:31:08;;;;;;;12.63;6.60;;;;;;;;;;4924860;29;20040;-78
2021/06/23 11:33:37;;;;;;;9.50;5.60;;;;;;;;;;4937371;29;20015;-80
2021/06/23 11:36:06;;;;;;;14.73;6.50;;;;;;;;;;4914197;29;21403;-80
2021/06/23 11:38:33;;;;;;;12.32;6.03;;;;;;;;;;4911312;29;20056;-79
2021/06/23 11:40:59;;;;;;;12.75;5.45;;;;;;;;;;4897877;29;20040;-82
2021/06/23 11:43:27;;;;;;;11.40;5.95;;;;;;;;;;4909700;29;20032;-81
2021/06/23 11:45:53;;;;;;;9.95;5.63;;;;;;;;;;4916368;29;20083;-81
2021/06/23 11:48:20;;;;;;;55.20;14.50;;;;;;;;;;4917193;29;20024;-81
2021/06/23 11:50:47;;;;;;;27.52;10.30;;;;;;;;;;4916976;29;20504;-85
2021/06/23 11:53:14;;;;;;;9.95;5.97;;;;;;;;;;4916692;29;20031;-83
2021/06/23 11:55:41;;;;;;;11.80;5.88;;;;;;;;;;4905776;29;20036;-81
2021/06/23 11:58:07;;;;;;;10.45;5.70;;;;;;;;;;4897542;29;20033;-82
2021/06/23 12:00:35;;;;;;;14.77;5.85;;;;;;;;;;4897640;29;20024;-83
2021/06/23 12:03:01;;;;;;;11.75;6.13;;;;;;;;;;4897828;29;20025;-79
2021/06/23 12:05:28;;;;;;;9.63;6.00;;;;;;;;;;4897334;29;20566;-81
2021/06/23 12:07:55;;;;;;;14.88;6.20;;;;;;;;;;4901816;29;20451;-78
2021/06/23 12:10:22;;;;;;;13.55;6.28;;;;;;;;;;4898974;29;20068;-81
2021/06/23 12:12:48;;;;;;;10.55;6.65;;;;;;;;;;4896775;29;20036;-78
2021/06/23 12:15:16;;;;;;;16.85;5.68;;;;;;;;;;4898132;29;20043;-82
2021/06/23 12:17:43;;;;;;;10.05;6.43;;;;;;;;;;4897252;29;20059;-80
2021/06/23 12:20:09;;;;;;;12.95;7.05;;;;;;;;;;4898544;29;20068;-81
2021/06/23 12:22:38;;;;;;;10.10;6.45;;;;;;;;;;4897092;29;20039;-80
2021/06/23 12:25:05;;;;;;;11.57;6.45;;;;;;;;;;4898545;29;20025;-82
2021/06/23 12:27:31;;;;;;;10.90;5.55;;;;;;;;;;4897194;29;20029;-80
2021/06/23 12:29:57;;;;;;;11.32;6.65;;;;;;;;;;4897059;29;20070;-82
2021/06/23 12:32:23;;;;;;;10.85;6.30;;;;;;;;;;4912319;29;20506;-80
2021/06/23 12:34:49;;;;;;;9.00;6.20;;;;;;;;;;4917394;29;20035;-79
2021/06/23 12:37:16;;;;;;;13.15;6.38;;;;;;;;;;4915797;29;20075;-79
2021/06/23 12:39:42;;;;;;;11.48;6.40;;;;;;;;;;4915498;29;20051;-79
2021/06/23 12:42:08;;;;;;;17.85;6.30;;;;;;;;;;4915614;29;20061;-83
2021/06/23 12:44:34;;;;;;;12.27;6.85;;;;;;;;;;4915813;29;20028;-79
2021/06/23 12:47:00;;;;;;;17.80;6.55;;;;;;;;;;4915842;29;20036;-79
2021/06/23 12:49:26;;;;;;;8.70;5.90;;;;;;;;;;4915828;29;20035;-80
2021/06/23 12:51:53;;;;;;;11.55;6.18;;;;;;;;;;4915207;29;20092;-81
2021/06/23 12:54:19;;;;;;;13.50;6.43;;;;;;;;;;4915492;29;20515;-82
2021/06/23 12:56:45;;;;;;;11.80;6.40;;;;;;;;;;4917007;29;20036;-79
2021/06/23 12:59:11;;;;;;;12.18;6.28;;;;;;;;;;4915822;29;20128;-78
2021/06/23 13:01:37;;;;;;;11.63;6.15;;;;;;;;;;4917098;29;20055;-79
2021/06/23 13:04:03;;;;;;;14.77;6.53;;;;;;;;;;4915615;29;20496;-79
2021/06/23 13:06:30;;;;;;;11.00;6.38;;;;;;;;;;4915718;29;20051;-79
2021/06/23 13:08:56;;;;;;;12.70;6.70;;;;;;;;;;4915693;29;20548;-79
2021/06/23 13:11:23;;;;;;;12.82;6.70;;;;;;;;;;4915626;29;20486;-78
2021/06/23 13:13:49;;;;;;;14.80;7.03;;;;;;;;;;4915543;29;20025;-80
2021/06/23 13:16:18;;;;;;;10.23;6.38;;;;;;;;;;4917031;29;20032;-78
2021/06/23 13:18:45;;;;;;;14.20;7.00;;;;;;;;;;4917132;29;20038;-80
2021/06/23 13:21:12;;;;;;;14.93;6.25;;;;;;;;;;4915636;29;20389;-79
2021/06/23 13:23:38;;;;;;;19.80;7.85;;;;;;;;;;4915640;29;20028;-79
2021/06/23 13:26:05;;;;;;;15.07;6.45;;;;;;;;;;4916595;29;20537;-78
2021/06/23 13:28:31;;;;;;;8.90;5.80;;;;;;;;;;4912477;29;20024;-81
2021/06/23 13:30:57;;;;;;;15.98;6.03;;;;;;;;;;4915141;29;20036;-80
2021/06/23 13:33:23;;;;;;;13.05;6.90;;;;;;;;;;4915547;29;20051;-80
2021/06/23 13:35:50;;;;;;;15.50;6.82;;;;;;;;;;4916477;29;20445;-81
2021/06/23 13:38:16;;;;;;;15.95;6.70;;;;;;;;;;4915264;29;20127;-81
2021/06/23 13:40:42;;;;;;;10.15;6.60;;;;;;;;;;4915457;29;20036;-81
2021/06/23 13:43:08;;;;;;;10.63;6.70;;;;;;;;;;4916658;29;20035;-80
2021/06/23 13:45:34;;;;;;;14.05;6.40;;;;;;;;;;4915413;29;20186;-81
2021/06/23 13:48:02;;;;;;;12.05;6.43;;;;;;;;;;4916276;29;20060;-81
2021/06/23 13:50:29;;;;;;;12.77;6.40;;;;;;;;;;4916609;29;20027;-81
2021/06/23 13:52:56;;;;;;;11.55;7.15;;;;;;;;;;4916739;29;20028;-81
2021/06/23 13:55:25;;;;;;;14.18;6.90;;;;;;;;;;4918876;29;20397;-80
2021/06/23 13:57:52;;;;;;;11.57;6.18;;;;;;;;;;4919893;29;20091;-80
2021/06/23 14:00:19;;;;;;;12.65;6.75;;;;;;;;;;4920386;29;20036;-80
2021/06/23 14:02:45;;;;;;;9.05;6.43;;;;;;;;;;4918659;29;20040;-81
2021/06/23 14:05:11;;;;;;;14.52;6.82;;;;;;;;;;4918581;29;20029;-81
2021/06/23 14:07:38;;;;;;;12.30;6.35;;;;;;;;;;4918598;29;20521;-81
2021/06/23 14:10:07;;;;;;;12.88;6.88;;;;;;;;;;4918498;29;20028;-81
2021/06/23 14:12:33;;;;;;;14.65;7.90;;;;;;;;;;4920418;29;20103;-81
2021/06/23 14:14:59;;;;;;;14.48;7.18;;;;;;;;;;4918344;29;20127;-81
2021/06/23 14:17:25;;;;;;;13.75;6.68;;;;;;;;;;4918391;29;20024;-81
2021/06/23 14:19:52;;;;;;;12.45;7.18;;;;;;;;;;4918283;29;20039;-81
2021/06/23 14:22:18;;;;;;;10.65;6.55;;;;;;;;;;4919840;29;20035;-81
2021/06/23 14:24:45;;;;;;;14.88;6.65;;;;;;;;;;4918162;29;20032;-81
2021/06/23 14:27:11;;;;;;;13.15;6.38;;;;;;;;;;4918262;29;20032;-81
2021/06/23 14:29:37;;;;;;;13.38;6.25;;;;;;;;;;4919447;29;20031;-81
2021/06/23 14:32:03;;;;;;;13.68;7.18;;;;;;;;;;4918075;29;20083;-80
2021/06/23 14:34:29;;;;;;;17.80;7.22;;;;;;;;;;4918019;29;20028;-80
2021/06/23 14:36:56;;;;;;;11.90;7.13;;;;;;;;;;4918039;29;20032;-80
2021/06/23 14:39:22;;;;;;;12.93;6.38;;;;;;;;;;4930240;29;20047;-81
2021/06/23 14:41:48;;;;;;;11.27;6.80;;;;;;;;;;4935285;29;20035;-80
2021/06/23 14:44:14;;;;;;;13.10;6.65;;;;;;;;;;4902272;29;20024;-79
2021/06/23 14:46:40;;;;;;;13.77;6.95;;;;;;;;;;4926262;29;20027;-81
2021/06/23 14:49:06;;;;;;;12.13;7.32;;;;;;;;;;4938311;29;20457;-78
2021/06/23 14:51:33;;;;;;;14.55;6.93;;;;;;;;;;4921017;29;20028;-81
2021/06/23 14:53:59;;;;;;;13.27;7.38;;;;;;;;;;4920738;29;20031;-80
2021/06/23 14:56:26;;;;;;;12.25;7.05;;;;;;;;;;4920897;29;20090;-79
2021/06/23 14:58:52;;;;;;;11.43;6.65;;;;;;;;;;4920477;29;20038;-79